createdAt,value
2022-09-12T00:01:31.547Z,6.18
2022-09-12T00:03:34.464Z,6.18
2022-09-12T00:05:44.791Z,6.18
2022-09-12T00:07:47.396Z,6.18
2022-09-12T00:09:49.959Z,6.18
2022-09-12T00:11:52.534Z,6.19
2022-09-12T00:13:59.667Z,6.19
2022-09-12T00:16:02.502Z,6.21
2022-09-12T00:18:05.456Z,6.20
2022-09-12T00:20:09.562Z,6.19
2022-09-12T00:22:12.066Z,6.19
2022-09-12T00:24:14.628Z,6.17
2022-09-12T00:26:18.807Z,6.16
2022-09-12T00:28:21.344Z,6.15
2022-09-12T00:30:24.164Z,6.12
2022-09-12T00:32:26.802Z,6.06
2022-09-12T00:34:29.360Z,6.07
2022-09-12T00:36:31.931Z,6.05
2022-09-12T00:38:38.530Z,6.03
2022-09-12T00:40:42.834Z,6.01
2022-09-12T00:42:45.357Z,5.99
2022-09-12T00:44:51.254Z,6.00
2022-09-12T00:46:59.258Z,6.02
2022-09-12T00:49:14.247Z,5.98
2022-09-12T00:51:18.652Z,5.98
2022-09-12T00:53:21.641Z,5.98
2022-09-12T00:55:54.816Z,6.00
2022-09-12T00:58:01.988Z,5.95
2022-09-12T01:00:14.944Z,5.91
2022-09-12T01:02:18.073Z,5.91
2022-09-12T01:04:23.478Z,5.88
2022-09-12T01:06:29.667Z,5.86
2022-09-12T01:08:34.512Z,5.85
2022-09-12T01:10:40.508Z,5.84
2022-09-12T01:12:44.405Z,5.85
2022-09-12T01:14:46.977Z,5.82
2022-09-12T01:16:51.003Z,5.86
2022-09-12T01:19:27.321Z,5.85
2022-09-12T01:21:45.130Z,5.82
2022-09-12T01:24:12.483Z,5.81
2022-09-12T01:26:20.962Z,5.82
2022-09-12T01:28:44.229Z,5.82
2022-09-12T01:30:46.804Z,5.83
2022-09-12T01:33:07.870Z,5.84
2022-09-12T01:35:41.924Z,5.81
2022-09-12T01:37:58.999Z,5.80
2022-09-12T01:40:30.038Z,5.74
2022-09-12T01:42:41.159Z,5.75
2022-09-12T01:45:03.540Z,5.71
2022-09-12T01:47:19.654Z,5.72
2022-09-12T01:49:37.590Z,5.70
2022-09-12T01:51:45.686Z,5.60
2022-09-12T01:53:56.081Z,5.71
2022-09-12T01:56:22.882Z,5.72
2022-09-12T01:58:30.537Z,5.68
2022-09-12T02:00:38.177Z,5.71
2022-09-12T02:02:48.795Z,5.71
2022-09-12T02:05:09.111Z,5.70
2022-09-12T02:07:18.497Z,5.68
2022-09-12T02:09:26.245Z,5.69
2022-09-12T02:11:33.336Z,5.70
2022-09-12T02:14:02.018Z,5.70
2022-09-12T02:16:26.107Z,5.67
2022-09-12T02:18:32.412Z,5.73
2022-09-12T02:20:47.842Z,5.75
2022-09-12T02:22:56.009Z,5.76
2022-09-12T02:25:01.337Z,5.78
2022-09-12T02:27:39.680Z,5.80
2022-09-12T02:29:44.828Z,5.82
2022-09-12T02:31:53.515Z,5.84
2022-09-12T02:34:23.132Z,5.89
2022-09-12T02:36:25.629Z,5.93
2022-09-12T02:38:38.517Z,5.99
2022-09-12T02:40:41.737Z,6.01
2022-09-12T02:42:44.378Z,6.08
2022-09-12T02:44:47.273Z,6.19
2022-09-12T02:46:55.988Z,6.27
2022-09-12T02:48:58.925Z,6.29
2022-09-12T02:51:02.656Z,6.39
2022-09-12T02:53:08.436Z,6.45
2022-09-12T02:55:11.849Z,6.50
2022-09-12T02:57:22.641Z,6.55
2022-09-12T02:59:26.603Z,6.62
2022-09-12T03:01:50.612Z,6.65
2022-09-12T03:03:55.783Z,6.71
2022-09-12T03:06:01.307Z,6.75
2022-09-12T03:08:09.723Z,6.82
2022-09-12T03:10:35.128Z,6.86
2022-09-12T03:12:46.220Z,6.93
2022-09-12T03:14:54.436Z,6.90
2022-09-12T03:17:25.961Z,7.07
2022-09-12T03:19:57.815Z,7.14
2022-09-12T03:22:21.530Z,7.23
2022-09-12T03:24:38.714Z,7.28
2022-09-12T03:26:46.889Z,7.35
2022-09-12T03:28:50.476Z,7.38
2022-09-12T03:30:54.862Z,7.46
2022-09-12T03:32:57.527Z,7.52
2022-09-12T03:35:00.069Z,7.53
2022-09-12T03:37:02.934Z,7.60
2022-09-12T03:39:05.697Z,7.62
2022-09-12T03:41:08.365Z,7.62
2022-09-12T03:43:11.369Z,7.62
2022-09-12T03:45:13.942Z,7.67
2022-09-12T03:47:16.722Z,7.69
2022-09-12T03:49:19.633Z,7.72
2022-09-12T03:51:22.374Z,7.79
2022-09-12T03:53:25.043Z,7.86
2022-09-12T03:55:27.973Z,7.91
2022-09-12T03:57:30.566Z,7.95
2022-09-12T03:59:33.237Z,8.01
2022-09-12T04:01:35.788Z,7.96
2022-09-12T04:03:40.141Z,8.02
2022-09-12T04:05:48.044Z,8.00
2022-09-12T04:07:50.609Z,8.03
2022-09-12T04:09:53.612Z,8.07
2022-09-12T04:11:56.170Z,8.11
2022-09-12T04:13:58.865Z,8.16
2022-09-12T04:16:02.099Z,8.24
2022-09-12T04:18:06.054Z,8.22
2022-09-12T04:20:09.507Z,8.38
2022-09-12T04:22:12.121Z,8.49
2022-09-12T04:24:14.663Z,8.56
2022-09-12T04:26:18.847Z,8.61
2022-09-12T04:28:21.550Z,8.68
2022-09-12T04:30:24.261Z,8.73
2022-09-12T04:32:26.836Z,8.82
2022-09-12T04:34:31.763Z,8.86
2022-09-12T04:36:34.622Z,8.95
2022-09-12T04:38:37.876Z,8.99
2022-09-12T04:40:40.720Z,9.03
2022-09-12T04:42:43.482Z,9.07
2022-09-12T04:44:46.166Z,9.07
2022-09-12T04:46:49.052Z,9.14
2022-09-12T04:48:56.437Z,9.16
2022-09-12T04:51:17.844Z,9.23
2022-09-12T04:53:20.448Z,9.27
2022-09-12T04:55:25.484Z,9.26
2022-09-12T04:57:28.131Z,9.31
2022-09-12T04:59:30.605Z,9.37
2022-09-12T05:01:33.508Z,9.48
2022-09-12T05:03:41.795Z,9.56
2022-09-12T05:05:47.293Z,9.58
2022-09-12T05:07:49.879Z,9.66
2022-09-12T05:09:52.540Z,9.74
2022-09-12T05:12:10.450Z,9.80
2022-09-12T05:14:13.148Z,9.88
2022-09-12T05:16:17.383Z,9.98
2022-09-12T05:18:19.893Z,10.07
2022-09-12T05:20:22.495Z,10.26
2022-09-12T05:22:25.342Z,10.41
2022-09-12T05:24:28.147Z,10.53
2022-09-12T05:26:30.738Z,10.62
2022-09-12T05:28:36.292Z,10.70
2022-09-12T05:30:38.890Z,10.77
2022-09-12T05:32:41.406Z,10.86
2022-09-12T05:34:43.909Z,10.92
2022-09-12T05:36:46.487Z,11.03
2022-09-12T05:38:49.019Z,11.07
2022-09-12T05:40:52.503Z,11.14
2022-09-12T05:42:55.047Z,11.19
2022-09-12T05:44:57.648Z,11.23
2022-09-12T05:47:00.215Z,11.28
2022-09-12T05:49:07.806Z,11.33
2022-09-12T05:51:13.872Z,11.42
2022-09-12T05:53:16.364Z,11.49
2022-09-12T05:55:19.679Z,11.59
2022-09-12T05:57:22.315Z,11.61
2022-09-12T05:59:24.915Z,11.66
2022-09-12T06:01:29.218Z,11.78
2022-09-12T06:03:31.839Z,12.00
2022-09-12T06:05:34.935Z,12.14
2022-09-12T06:07:37.464Z,12.33
2022-09-12T06:09:39.983Z,12.44
2022-09-12T06:11:43.222Z,12.60
2022-09-12T06:13:46.170Z,12.83
2022-09-12T06:15:48.771Z,13.01
2022-09-12T06:17:51.611Z,13.16
2022-09-12T06:19:54.336Z,13.32
2022-09-12T06:21:57.218Z,13.34
2022-09-12T06:23:59.703Z,13.39
2022-09-12T06:26:04.423Z,13.64
2022-09-12T06:28:06.920Z,13.83
2022-09-12T06:30:09.941Z,13.91
2022-09-12T06:32:12.537Z,14.06
2022-09-12T06:34:16.181Z,14.20
2022-09-12T06:36:24.564Z,14.29
2022-09-12T06:38:27.075Z,14.46
2022-09-12T06:40:29.988Z,14.59
2022-09-12T06:42:33.264Z,14.80
2022-09-12T06:44:36.182Z,15.05
2022-09-12T06:46:38.780Z,15.02
2022-09-12T06:48:42.487Z,15.07
2022-09-12T06:50:56.610Z,15.23
2022-09-12T06:52:59.094Z,15.33
2022-09-12T06:55:01.646Z,15.31
2022-09-12T06:57:04.450Z,15.15
2022-09-12T06:59:06.967Z,15.15
2022-09-12T07:01:18.415Z,15.19
2022-09-12T07:03:20.957Z,14.88
2022-09-12T07:05:24.082Z,14.83
2022-09-12T07:07:26.837Z,14.95
2022-09-12T07:09:30.951Z,15.07
2022-09-12T07:11:36.694Z,15.22
2022-09-12T07:13:40.474Z,15.30
2022-09-12T07:15:43.002Z,15.31
2022-09-12T07:17:45.755Z,15.42
2022-09-12T07:19:48.266Z,15.51
2022-09-12T07:21:54.204Z,15.63
2022-09-12T07:23:59.323Z,15.49
2022-09-12T07:26:02.849Z,15.58
2022-09-12T07:28:05.330Z,15.60
2022-09-12T07:30:08.203Z,15.55
2022-09-12T07:32:12.300Z,15.61
2022-09-12T07:34:14.929Z,15.73
2022-09-12T07:36:20.345Z,15.67
2022-09-12T07:38:23.611Z,15.70
2022-09-12T07:40:26.081Z,15.74
2022-09-12T07:42:47.215Z,15.85
2022-09-12T07:44:54.051Z,15.89
2022-09-12T07:46:56.637Z,15.91
2022-09-12T07:49:01.154Z,16.01
2022-09-12T07:51:09.550Z,16.04
2022-09-12T07:53:12.270Z,16.00
2022-09-12T07:55:15.002Z,15.96
2022-09-12T07:57:17.641Z,16.04
2022-09-12T07:59:35.640Z,16.12
2022-09-12T08:01:43.310Z,16.16
2022-09-12T08:03:48.812Z,16.00
2022-09-12T08:05:51.329Z,15.67
2022-09-12T08:07:57.638Z,15.55
2022-09-12T08:10:00.661Z,15.60
2022-09-12T08:12:03.411Z,15.50
2022-09-12T08:14:06.102Z,15.64
2022-09-12T08:16:14.598Z,15.54
2022-09-12T08:18:17.142Z,15.47
2022-09-12T08:20:19.820Z,15.53
2022-09-12T08:22:22.710Z,15.71
2022-09-12T08:24:25.363Z,15.72
2022-09-12T08:26:28.484Z,15.49
2022-09-12T08:28:32.489Z,15.51
2022-09-12T08:30:35.129Z,15.27
2022-09-12T08:32:37.671Z,14.85
2022-09-12T08:34:40.207Z,14.78
2022-09-12T08:36:43.203Z,14.71
2022-09-12T08:38:47.636Z,14.84
2022-09-12T08:40:57.983Z,14.76
2022-09-12T08:43:14.641Z,14.53
2022-09-12T08:45:24.485Z,14.30
2022-09-12T08:47:32.122Z,14.40
2022-09-12T08:49:44.661Z,14.57
2022-09-12T08:51:48.114Z,14.61
2022-09-12T08:53:54.561Z,14.68
2022-09-12T08:56:00.083Z,14.86
2022-09-12T08:58:18.467Z,15.02
2022-09-12T09:00:21.814Z,15.21
2022-09-12T09:02:58.428Z,15.49
2022-09-12T09:05:31.840Z,15.77
2022-09-12T09:08:17.658Z,15.73
2022-09-12T09:11:12.429Z,15.41
2022-09-12T09:14:01.890Z,15.06
2022-09-12T09:16:21.786Z,14.70
2022-09-12T09:18:30.599Z,14.51
2022-09-12T09:20:53.230Z,14.55
2022-09-12T09:23:15.511Z,14.64
2022-09-12T09:25:25.881Z,14.89
2022-09-12T09:27:49.107Z,14.95
2022-09-12T09:29:54.972Z,15.02
2022-09-12T09:32:01.409Z,15.25
2022-09-12T09:34:13.872Z,15.50
2022-09-12T09:36:32.893Z,15.65
2022-09-12T09:38:35.473Z,15.86
2022-09-12T09:40:45.058Z,16.13
2022-09-12T09:43:20.464Z,16.24
2022-09-12T09:45:25.842Z,16.44
2022-09-12T09:47:28.781Z,16.70
2022-09-12T09:49:35.045Z,16.92
2022-09-12T09:51:40.572Z,17.01
2022-09-12T09:53:56.671Z,17.10
2022-09-12T09:56:02.884Z,17.03
2022-09-12T09:58:05.435Z,16.91
2022-09-12T10:00:30.752Z,16.84
2022-09-12T10:02:33.464Z,16.84
2022-09-12T10:04:41.576Z,16.83
2022-09-12T10:06:44.497Z,16.84
2022-09-12T10:08:48.717Z,16.98
2022-09-12T10:11:03.351Z,16.97
2022-09-12T10:13:43.635Z,17.15
2022-09-12T10:16:05.561Z,17.30
2022-09-12T10:18:08.202Z,17.46
2022-09-12T10:20:32.476Z,17.85
2022-09-12T10:22:34.976Z,18.04
2022-09-12T10:24:42.289Z,18.02
2022-09-12T10:26:47.761Z,17.96
2022-09-12T10:28:54.188Z,18.09
2022-09-12T10:30:57.118Z,18.11
2022-09-12T10:33:13.087Z,18.17
2022-09-12T10:35:24.320Z,18.13
2022-09-12T10:37:35.320Z,17.91
2022-09-12T10:39:39.094Z,17.62
2022-09-12T10:41:41.911Z,17.41
2022-09-12T10:43:45.438Z,17.23
2022-09-12T10:45:48.008Z,17.04
2022-09-12T10:47:52.033Z,16.89
2022-09-12T10:50:22.311Z,16.80
2022-09-12T10:52:25.985Z,16.65
2022-09-12T10:54:28.826Z,16.58
2022-09-12T10:56:36.190Z,16.49
2022-09-12T10:59:00.400Z,16.46
2022-09-12T11:01:45.407Z,16.41
2022-09-12T11:03:50.722Z,16.34
2022-09-12T11:06:00.726Z,16.31
2022-09-12T11:08:09.272Z,16.56
2022-09-12T11:10:36.781Z,16.90
2022-09-12T11:13:03.467Z,17.07
2022-09-12T11:15:33.801Z,17.25
2022-09-12T11:17:36.319Z,17.83
2022-09-12T11:19:57.438Z,18.10
2022-09-12T11:22:28.717Z,18.45
2022-09-12T11:24:48.934Z,18.75
2022-09-12T11:27:14.943Z,18.79
2022-09-12T11:29:38.390Z,18.66
2022-09-12T11:31:58.595Z,18.46
2022-09-12T11:34:09.234Z,18.23
2022-09-12T11:36:53.261Z,18.13
2022-09-12T11:39:21.740Z,17.92
2022-09-12T11:41:31.584Z,17.88
2022-09-12T11:43:43.193Z,17.78
2022-09-12T11:45:47.953Z,17.61
2022-09-12T11:47:55.671Z,17.41
2022-09-12T11:50:02.383Z,17.32
2022-09-12T11:52:14.585Z,17.20
2022-09-12T11:54:32.744Z,17.13
2022-09-12T11:56:39.152Z,16.98
2022-09-12T11:58:44.788Z,16.87
2022-09-12T12:00:54.339Z,16.77
2022-09-12T12:03:10.285Z,16.76
2022-09-12T12:05:24.956Z,16.68
2022-09-12T12:07:35.639Z,16.60
2022-09-12T12:09:52.861Z,16.53
2022-09-12T12:11:58.568Z,16.55
2022-09-12T12:14:02.588Z,16.62
2022-09-12T12:16:14.625Z,16.75
2022-09-12T12:18:28.044Z,17.19
2022-09-12T12:20:30.916Z,17.65
2022-09-12T12:22:33.889Z,18.08
2022-09-12T12:25:02.894Z,18.68
2022-09-12T12:27:25.819Z,19.27
2022-09-12T12:29:43.521Z,19.62
2022-09-12T12:32:04.466Z,20.05
2022-09-12T12:34:22.850Z,20.42
2022-09-12T12:36:37.462Z,20.82
2022-09-12T12:38:41.261Z,21.23
2022-09-12T12:40:43.819Z,21.52
2022-09-12T12:42:46.227Z,21.42
2022-09-12T12:44:51.591Z,21.19
2022-09-12T12:47:16.213Z,20.83
2022-09-12T12:49:28.385Z,20.68
2022-09-12T12:51:44.388Z,20.69
2022-09-12T12:53:47.592Z,20.53
2022-09-12T12:55:52.811Z,20.44
2022-09-12T12:58:07.052Z,20.69
2022-09-12T13:00:27.954Z,21.23
2022-09-12T13:02:37.530Z,21.50
2022-09-12T13:04:45.673Z,21.22
2022-09-12T13:06:57.446Z,20.90
2022-09-12T13:09:08.041Z,21.08
2022-09-12T13:11:28.610Z,21.14
2022-09-12T13:13:48.315Z,21.07
2022-09-12T13:15:52.525Z,21.19
2022-09-12T13:18:01.924Z,20.84
2022-09-12T13:20:29.625Z,20.25
2022-09-12T13:22:44.968Z,19.98
2022-09-12T13:24:49.381Z,20.14
2022-09-12T13:26:52.132Z,20.16
2022-09-12T13:29:16.656Z,19.92
2022-09-12T13:31:30.311Z,19.80
2022-09-12T13:33:43.207Z,19.60
2022-09-12T13:36:05.557Z,19.39
2022-09-12T13:38:26.429Z,19.19
2022-09-12T13:40:47.165Z,18.94
2022-09-12T13:42:53.767Z,18.72
2022-09-12T13:45:05.936Z,18.61
2022-09-12T13:47:15.325Z,18.47
2022-09-12T13:49:23.214Z,18.35
2022-09-12T13:51:32.587Z,18.23
2022-09-12T13:53:46.954Z,18.06
2022-09-12T13:55:56.606Z,17.92
2022-09-12T13:58:05.653Z,17.83
2022-09-12T14:00:19.834Z,17.69
2022-09-12T14:02:25.168Z,17.61
2022-09-12T14:04:46.502Z,17.51
2022-09-12T14:06:51.992Z,17.41
2022-09-12T14:09:01.574Z,17.31
2022-09-12T14:11:09.935Z,17.12
2022-09-12T14:13:25.322Z,17.05
2022-09-12T14:15:31.693Z,16.95
2022-09-12T14:17:36.534Z,16.87
2022-09-12T14:19:40.014Z,16.75
2022-09-12T14:21:42.623Z,16.65
2022-09-12T14:23:48.255Z,16.54
2022-09-12T14:25:52.280Z,16.42
2022-09-12T14:27:57.137Z,16.36
2022-09-12T14:30:22.952Z,16.34
2022-09-12T14:32:25.895Z,16.32
2022-09-12T14:34:29.318Z,16.26
2022-09-12T14:36:36.909Z,16.29
2022-09-12T14:38:50.242Z,16.30
2022-09-12T14:41:01.192Z,16.20
2022-09-12T14:43:03.889Z,16.13
2022-09-12T14:45:17.225Z,16.03
2022-09-12T14:47:25.903Z,15.94
2022-09-12T14:49:36.489Z,15.78
2022-09-12T14:51:47.146Z,15.63
2022-09-12T14:53:52.006Z,15.44
2022-09-12T14:56:11.869Z,15.34
2022-09-12T14:58:17.355Z,15.23
2022-09-12T15:00:24.986Z,15.09
2022-09-12T15:02:27.824Z,14.98
2022-09-12T15:04:48.335Z,14.85
2022-09-12T15:06:51.000Z,14.69
2022-09-12T15:08:55.101Z,14.58
2022-09-12T15:10:58.845Z,14.46
2022-09-12T15:13:10.032Z,14.25
2022-09-12T15:15:18.958Z,14.04
2022-09-12T15:17:21.576Z,13.94
2022-09-12T15:19:24.102Z,13.85
2022-09-12T15:21:26.846Z,13.75
2022-09-12T15:23:36.867Z,13.63
2022-09-12T15:25:39.404Z,13.55
2022-09-12T15:27:42.595Z,13.52
2022-09-12T15:29:45.248Z,13.53
2022-09-12T15:31:51.364Z,13.51
2022-09-12T15:33:56.369Z,13.44
2022-09-12T15:36:01.085Z,13.34
2022-09-12T15:38:10.793Z,13.32
2022-09-12T15:40:15.882Z,13.28
2022-09-12T15:42:29.700Z,13.26
2022-09-12T15:44:33.603Z,13.21
2022-09-12T15:46:37.995Z,13.15
2022-09-12T15:48:41.667Z,13.10
2022-09-12T15:50:46.034Z,13.00
2022-09-12T15:52:50.028Z,12.96
2022-09-12T15:54:53.708Z,12.93
2022-09-12T15:56:57.143Z,12.85
2022-09-12T15:59:00.630Z,12.82
2022-09-12T16:01:05.519Z,12.76
2022-09-12T16:03:28.047Z,12.68
2022-09-12T16:05:31.957Z,12.61
2022-09-12T16:07:35.757Z,12.60
2022-09-12T16:09:39.562Z,12.56
2022-09-12T16:11:45.475Z,12.50
2022-09-12T16:13:49.399Z,12.45
2022-09-12T16:15:57.743Z,12.42
2022-09-12T16:18:00.563Z,12.39
2022-09-12T16:20:03.618Z,12.36
2022-09-12T16:22:06.403Z,12.31
2022-09-12T16:24:08.875Z,12.29
2022-09-12T16:26:11.455Z,12.26
2022-09-12T16:28:14.140Z,12.22
2022-09-12T16:30:16.720Z,12.17
2022-09-12T16:32:19.183Z,12.17
2022-09-12T16:34:21.876Z,12.17
2022-09-12T16:36:24.717Z,12.14
2022-09-12T16:38:27.430Z,12.10
2022-09-12T16:40:31.726Z,12.03
2022-09-12T16:42:34.387Z,12.00
2022-09-12T16:44:36.957Z,11.96
2022-09-12T16:46:39.533Z,11.94
2022-09-12T16:48:51.808Z,11.90
2022-09-12T16:51:01.066Z,11.87
2022-09-12T16:53:03.683Z,11.79
2022-09-12T16:55:06.932Z,11.73
2022-09-12T16:57:09.531Z,11.68
2022-09-12T16:59:16.317Z,11.66
2022-09-12T17:01:21.827Z,11.59
2022-09-12T17:03:24.354Z,11.53
2022-09-12T17:05:27.961Z,11.53
2022-09-12T17:07:30.643Z,11.47
2022-09-12T17:09:33.282Z,11.42
2022-09-12T17:11:38.962Z,11.38
2022-09-12T17:14:03.319Z,11.30
2022-09-12T17:16:07.045Z,11.26
2022-09-12T17:18:09.491Z,11.22
2022-09-12T17:20:12.005Z,11.07
2022-09-12T17:22:14.548Z,11.11
2022-09-12T17:24:18.098Z,11.09
2022-09-12T17:26:20.957Z,10.89
2022-09-12T17:28:23.770Z,10.99
2022-09-12T17:30:26.380Z,10.93
2022-09-12T17:32:28.888Z,10.91
2022-09-12T17:34:31.550Z,10.83
2022-09-12T17:36:34.388Z,10.83
2022-09-12T17:38:39.862Z,10.83
2022-09-12T17:40:59.062Z,10.79
2022-09-12T17:43:02.541Z,10.80
2022-09-12T17:45:05.651Z,10.79
2022-09-12T17:47:08.167Z,10.76
2022-09-12T17:49:18.722Z,10.78
2022-09-12T17:51:25.455Z,10.77
2022-09-12T17:53:27.968Z,10.73
2022-09-12T17:55:34.223Z,10.73
2022-09-12T17:57:37.239Z,10.70
2022-09-12T17:59:40.228Z,10.65
2022-09-12T18:02:01.400Z,10.68
2022-09-12T18:04:03.978Z,10.66
2022-09-12T18:06:06.756Z,10.64
2022-09-12T18:08:09.307Z,10.63
2022-09-12T18:10:12.191Z,10.60
2022-09-12T18:12:15.793Z,10.57
2022-09-12T18:14:19.011Z,10.56
2022-09-12T18:16:21.561Z,10.54
2022-09-12T18:18:24.117Z,10.54
2022-09-12T18:20:26.777Z,10.54
2022-09-12T18:22:29.429Z,10.50
2022-09-12T18:24:32.735Z,10.53
2022-09-12T18:26:35.452Z,10.52
2022-09-12T18:28:40.632Z,10.50
2022-09-12T18:30:43.108Z,10.50
2022-09-12T18:32:46.140Z,10.51
2022-09-12T18:34:48.588Z,10.49
2022-09-12T18:36:54.413Z,10.51
2022-09-12T18:38:58.768Z,10.50
2022-09-12T18:41:03.437Z,10.47
2022-09-12T18:43:06.240Z,10.44
2022-09-12T18:45:09.578Z,10.40
2022-09-12T18:47:12.046Z,10.35
2022-09-12T18:49:14.535Z,10.29
2022-09-12T18:51:25.951Z,10.26
2022-09-12T18:53:28.420Z,10.23
2022-09-12T18:55:32.256Z,10.14
2022-09-12T18:57:35.297Z,10.14
2022-09-12T18:59:37.887Z,10.10
2022-09-12T19:01:40.563Z,10.06
2022-09-12T19:03:43.889Z,10.02
2022-09-12T19:05:46.477Z,9.99
2022-09-12T19:07:49.133Z,9.95
2022-09-12T19:09:51.813Z,9.93
2022-09-12T19:11:54.323Z,9.92
2022-09-12T19:13:57.233Z,9.89
2022-09-12T19:16:01.225Z,9.89
2022-09-12T19:18:03.861Z,9.86
2022-09-12T19:20:06.784Z,9.84
2022-09-12T19:22:09.444Z,9.82
2022-09-12T19:24:13.730Z,9.79
2022-09-12T19:26:18.227Z,9.77
2022-09-12T19:28:20.675Z,9.76
2022-09-12T19:30:23.518Z,9.72
2022-09-12T19:32:26.022Z,9.73
2022-09-12T19:34:28.490Z,9.68
2022-09-12T19:36:44.967Z,9.67
2022-09-12T19:38:48.836Z,9.64
2022-09-12T19:40:58.713Z,9.62
2022-09-12T19:43:01.138Z,9.55
2022-09-12T19:45:04.082Z,9.59
2022-09-12T19:47:06.648Z,9.56
2022-09-12T19:49:11.064Z,9.53
2022-09-12T19:51:15.661Z,9.52
2022-09-12T19:53:18.727Z,9.50
2022-09-12T19:55:22.352Z,9.47
2022-09-12T19:57:24.835Z,9.39
2022-09-12T19:59:27.370Z,9.43
2022-09-12T20:01:29.955Z,9.42
2022-09-12T20:03:32.601Z,9.42
2022-09-12T20:05:38.496Z,9.36
2022-09-12T20:07:44.559Z,9.36
2022-09-12T20:09:47.324Z,9.33
2022-09-12T20:11:50.139Z,9.30
2022-09-12T20:13:52.723Z,9.28
2022-09-12T20:15:55.231Z,9.25
2022-09-12T20:17:58.386Z,9.23
2022-09-12T20:20:00.881Z,9.21
2022-09-12T20:22:03.544Z,9.18
2022-09-12T20:24:15.917Z,9.15
2022-09-12T20:26:20.478Z,9.14
2022-09-12T20:28:23.185Z,9.09
2022-09-12T20:30:25.820Z,9.10
2022-09-12T20:32:29.252Z,9.08
2022-09-12T20:34:31.786Z,9.06
2022-09-12T20:36:34.678Z,9.04
2022-09-12T20:38:37.209Z,9.04
2022-09-12T20:40:39.907Z,9.07
2022-09-12T20:42:42.530Z,9.04
2022-09-12T20:44:44.996Z,9.08
2022-09-12T20:46:47.610Z,9.15
2022-09-12T20:48:51.523Z,9.19
2022-09-12T20:50:54.020Z,9.22
2022-09-12T20:52:56.448Z,9.26
2022-09-12T20:54:58.981Z,9.28
2022-09-12T20:57:01.503Z,9.32
2022-09-12T20:59:04.917Z,9.35
2022-09-12T21:01:09.079Z,9.37
2022-09-12T21:03:11.870Z,9.37
2022-09-12T21:05:14.542Z,9.37
2022-09-12T21:07:17.373Z,9.36
2022-09-12T21:09:19.947Z,9.37
2022-09-12T21:11:22.370Z,9.37
2022-09-12T21:13:24.996Z,9.36
2022-09-12T21:15:27.512Z,9.37
2022-09-12T21:17:29.971Z,9.40
2022-09-12T21:19:32.453Z,9.43
2022-09-12T21:21:35.117Z,9.45
2022-09-12T21:23:37.994Z,9.47
2022-09-12T21:25:40.548Z,9.48
2022-09-12T21:27:43.121Z,9.49
2022-09-12T21:29:45.581Z,9.49
2022-09-12T21:31:48.148Z,9.46
2022-09-12T21:33:51.502Z,9.48
2022-09-12T21:35:54.394Z,9.51
2022-09-12T21:37:57.450Z,9.53
2022-09-12T21:40:00.032Z,9.55
2022-09-12T21:42:02.575Z,9.55
2022-09-12T21:44:05.332Z,9.57
2022-09-12T21:46:09.032Z,9.58
2022-09-12T21:48:12.394Z,9.58
2022-09-12T21:50:15.343Z,9.60
2022-09-12T21:52:17.793Z,9.59
2022-09-12T21:54:20.248Z,9.58
2022-09-12T21:56:23.465Z,9.58
2022-09-12T21:58:25.950Z,9.56
2022-09-12T22:00:28.598Z,9.51
2022-09-12T22:02:31.107Z,9.46
2022-09-12T22:04:33.550Z,9.41
2022-09-12T22:06:36.690Z,9.36
2022-09-12T22:08:39.384Z,9.30
2022-09-12T22:10:42.063Z,9.23
2022-09-12T22:12:46.471Z,9.19
2022-09-12T22:14:49.435Z,9.02
2022-09-12T22:16:52.049Z,9.05
2022-09-12T22:18:54.599Z,8.99
2022-09-12T22:21:05.771Z,8.92
2022-09-12T22:23:28.363Z,8.84
2022-09-12T22:25:31.054Z,8.80
2022-09-12T22:27:33.591Z,8.75
2022-09-12T22:29:37.322Z,8.72
2022-09-12T22:31:40.480Z,8.67
2022-09-12T22:33:43.251Z,8.62
2022-09-12T22:35:45.742Z,8.60
2022-09-12T22:37:48.232Z,8.57
2022-09-12T22:39:51.032Z,8.49
2022-09-12T22:41:53.580Z,8.40
2022-09-12T22:43:57.297Z,8.45
2022-09-12T22:46:00.574Z,8.39
2022-09-12T22:48:06.217Z,8.39
2022-09-12T22:50:11.552Z,8.34
2022-09-12T22:52:16.161Z,8.32
2022-09-12T22:54:19.022Z,8.29
2022-09-12T22:56:21.835Z,8.26
2022-09-12T22:58:24.420Z,8.26
2022-09-12T23:00:29.920Z,8.22
2022-09-12T23:02:32.418Z,8.21
2022-09-12T23:04:34.995Z,8.22
2022-09-12T23:06:37.455Z,8.21
2022-09-12T23:08:40.360Z,8.22
2022-09-12T23:10:44.162Z,8.19
2022-09-12T23:12:46.642Z,8.17
2022-09-12T23:14:49.191Z,8.14
2022-09-12T23:16:51.680Z,8.15
2022-09-12T23:18:54.236Z,8.14
2022-09-12T23:21:01.389Z,8.12
2022-09-12T23:23:04.225Z,8.10
2022-09-12T23:25:07.750Z,8.07
2022-09-12T23:27:10.293Z,8.08
2022-09-12T23:29:12.746Z,8.06
2022-09-12T23:31:17.180Z,8.05
2022-09-12T23:33:20.053Z,8.07
2022-09-12T23:35:22.501Z,8.10
2022-09-12T23:37:26.787Z,8.11
2022-09-12T23:39:29.298Z,8.12
2022-09-12T23:41:32.083Z,8.15
2022-09-12T23:43:34.922Z,8.19
2022-09-12T23:45:37.476Z,8.22
2022-09-12T23:47:39.965Z,8.24
2022-09-12T23:49:42.442Z,8.27
2022-09-12T23:51:44.974Z,8.31
2022-09-12T23:53:47.769Z,8.34
2022-09-12T23:55:50.477Z,8.37
2022-09-12T23:57:54.388Z,8.42
2022-09-12T23:59:56.833Z,8.45
